createdAt,value
2022-09-03T00:00:05.322Z,2.00
2022-09-03T00:02:33.514Z,1.83
2022-09-03T00:05:19.021Z,1.50
2022-09-03T00:08:04.633Z,2.27
2022-09-03T00:10:44.719Z,1.53
2022-09-03T00:13:14.031Z,1.60
2022-09-03T00:15:40.818Z,2.10
2022-09-03T00:18:12.650Z,1.80
2022-09-03T00:20:40.446Z,1.70
2022-09-03T00:23:08.663Z,1.93
2022-09-03T00:25:40.924Z,1.60
2022-09-03T00:28:16.841Z,1.60
2022-09-03T00:30:45.204Z,1.87
2022-09-03T00:33:19.136Z,1.97
2022-09-03T00:35:47.855Z,1.57
2022-09-03T00:38:14.431Z,2.30
2022-09-03T00:40:44.153Z,2.00
2022-09-03T00:43:13.824Z,2.07
2022-09-03T00:45:47.086Z,1.80
2022-09-03T00:48:27.755Z,1.73
2022-09-03T00:51:07.525Z,2.23
2022-09-03T00:53:51.342Z,2.03
2022-09-03T00:56:17.853Z,2.00
2022-09-03T00:59:03.993Z,2.13
2022-09-03T01:01:30.568Z,2.13
2022-09-03T01:04:15.359Z,2.63
2022-09-03T01:07:02.125Z,1.80
2022-09-03T01:09:43.981Z,1.90
2022-09-03T01:12:13.662Z,2.90
2022-09-03T01:14:43.259Z,1.93
2022-09-03T01:17:32.809Z,2.00
2022-09-03T01:20:08.665Z,1.73
2022-09-03T01:22:38.548Z,1.90
2022-09-03T01:25:32.172Z,2.00
2022-09-03T01:28:02.089Z,1.70
2022-09-03T01:30:31.405Z,2.20
2022-09-03T01:33:16.342Z,2.40
2022-09-03T01:35:43.599Z,2.27
2022-09-03T01:38:19.358Z,2.60
2022-09-03T01:40:47.951Z,2.40
2022-09-03T01:43:17.639Z,2.13
2022-09-03T01:45:51.785Z,2.47
2022-09-03T01:48:22.138Z,2.30
2022-09-03T01:50:48.732Z,2.27
2022-09-03T01:53:18.353Z,2.70
2022-09-03T01:55:57.226Z,2.60
2022-09-03T01:58:31.387Z,2.50
2022-09-03T02:01:01.958Z,2.33
2022-09-03T02:03:40.803Z,2.07
2022-09-03T02:06:09.072Z,1.97
2022-09-03T02:08:35.898Z,2.03
2022-09-03T02:11:06.095Z,2.10
2022-09-03T02:13:43.409Z,2.00
2022-09-03T02:16:14.885Z,2.63
2022-09-03T02:18:44.458Z,2.60
2022-09-03T02:21:11.188Z,2.57
2022-09-03T02:23:39.306Z,2.37
2022-09-03T02:26:06.879Z,2.20
2022-09-03T02:28:33.960Z,1.97
2022-09-03T02:31:00.709Z,1.63
2022-09-03T02:33:27.347Z,1.60
2022-09-03T02:35:54.098Z,2.00
2022-09-03T02:38:22.426Z,1.87
2022-09-03T02:40:49.060Z,1.90
2022-09-03T02:43:42.044Z,2.00
2022-09-03T02:46:10.230Z,2.00
2022-09-03T02:48:36.850Z,1.77
2022-09-03T02:51:07.948Z,2.37
2022-09-03T02:53:41.253Z,2.17
2022-09-03T02:56:07.845Z,2.10
2022-09-03T02:58:35.149Z,2.10
2022-09-03T03:01:01.708Z,2.10
2022-09-03T03:03:28.417Z,2.20
2022-09-03T03:05:56.678Z,2.00
2022-09-03T03:08:25.145Z,2.20
2022-09-03T03:10:52.461Z,2.03
2022-09-03T03:13:19.003Z,2.33
2022-09-03T03:15:46.344Z,2.17
2022-09-03T03:18:14.050Z,2.20
2022-09-03T03:20:41.305Z,2.27
2022-09-03T03:23:08.096Z,1.87
2022-09-03T03:25:35.312Z,1.70
2022-09-03T03:28:03.515Z,2.10
2022-09-03T03:30:30.103Z,2.03
2022-09-03T03:32:56.932Z,2.10
2022-09-03T03:35:23.552Z,1.90
2022-09-03T03:37:50.122Z,1.80
2022-09-03T03:40:17.178Z,2.07
2022-09-03T03:42:43.741Z,1.97
2022-09-03T03:45:10.417Z,1.70
2022-09-03T03:47:37.475Z,2.30
2022-09-03T03:50:04.661Z,2.20
2022-09-03T03:52:31.205Z,2.20
2022-09-03T03:54:57.772Z,2.17
2022-09-03T03:57:24.316Z,1.87
2022-09-03T03:59:50.823Z,2.70
2022-09-03T04:02:17.912Z,2.37
2022-09-03T04:04:44.530Z,1.90
2022-09-03T04:07:11.065Z,2.00
2022-09-03T04:09:37.811Z,2.03
2022-09-03T04:12:08.739Z,2.40
2022-09-03T04:14:35.424Z,2.17
2022-09-03T04:17:03.079Z,2.27
2022-09-03T04:19:30.275Z,2.60
2022-09-03T04:21:57.129Z,2.57
2022-09-03T04:24:23.985Z,2.40
2022-09-03T04:26:50.677Z,2.30
2022-09-03T04:29:18.409Z,2.50
2022-09-03T04:32:04.910Z,2.37
2022-09-03T04:34:31.495Z,2.40
2022-09-03T04:37:01.030Z,2.00
2022-09-03T04:39:27.652Z,2.90
2022-09-03T04:41:54.690Z,2.50
2022-09-03T04:44:21.533Z,2.30
2022-09-03T04:46:48.472Z,2.60
2022-09-03T04:49:15.146Z,2.53
2022-09-03T04:51:41.634Z,2.00
2022-09-03T04:54:09.976Z,2.67
2022-09-03T04:56:36.880Z,2.13
2022-09-03T04:59:07.638Z,2.10
2022-09-03T05:01:35.205Z,2.27
2022-09-03T05:04:01.851Z,2.87
2022-09-03T05:06:29.561Z,1.93
2022-09-03T05:08:56.166Z,3.10
2022-09-03T05:11:23.616Z,2.70
2022-09-03T05:13:51.034Z,2.60
2022-09-03T05:16:18.578Z,2.50
2022-09-03T05:18:45.959Z,2.53
2022-09-03T05:21:14.227Z,3.00
2022-09-03T05:23:42.532Z,2.63
2022-09-03T05:26:11.240Z,3.10
2022-09-03T05:28:38.645Z,2.50
2022-09-03T05:31:12.618Z,2.03
2022-09-03T05:33:43.845Z,2.07
2022-09-03T05:36:11.993Z,2.80
2022-09-03T05:38:38.674Z,2.67
2022-09-03T05:41:07.028Z,2.73
2022-09-03T05:43:34.487Z,1.80
2022-09-03T05:46:02.430Z,2.20
2022-09-03T05:48:29.816Z,2.40
2022-09-03T05:51:06.702Z,2.30
2022-09-03T05:53:34.671Z,2.70
2022-09-03T05:56:02.787Z,2.13
2022-09-03T05:58:33.570Z,2.60
2022-09-03T06:01:00.358Z,2.77
2022-09-03T06:03:27.302Z,2.73
2022-09-03T06:05:54.640Z,2.30
2022-09-03T06:08:21.715Z,3.00
2022-09-03T06:10:48.282Z,3.03
2022-09-03T06:13:14.841Z,2.73
2022-09-03T06:15:41.457Z,2.50
2022-09-03T06:18:08.000Z,2.60
2022-09-03T06:20:37.131Z,2.20
2022-09-03T06:23:04.198Z,2.03
2022-09-03T06:25:32.024Z,2.23
2022-09-03T06:27:59.164Z,2.17
2022-09-03T06:30:26.803Z,2.70
2022-09-03T06:32:54.012Z,2.87
2022-09-03T06:35:20.738Z,2.13
2022-09-03T06:37:47.313Z,2.23
2022-09-03T06:40:14.278Z,3.57
2022-09-03T06:42:41.451Z,3.03
2022-09-03T06:45:12.419Z,2.50
2022-09-03T06:47:38.953Z,2.30
2022-09-03T06:50:05.756Z,2.10
2022-09-03T06:52:32.592Z,2.13
2022-09-03T06:54:59.482Z,2.03
2022-09-03T06:57:26.021Z,2.10
2022-09-03T06:59:54.662Z,2.00
2022-09-03T07:02:23.080Z,2.20
2022-09-03T07:04:49.948Z,2.30
2022-09-03T07:07:16.499Z,2.20
2022-09-03T07:09:46.386Z,1.70
2022-09-03T07:12:16.914Z,2.43
2022-09-03T07:14:43.418Z,2.20
2022-09-03T07:17:09.928Z,1.77
2022-09-03T07:19:36.476Z,2.00
2022-09-03T07:22:02.996Z,2.03
2022-09-03T07:24:29.511Z,2.30
2022-09-03T07:26:57.083Z,1.87
2022-09-03T07:29:23.778Z,1.73
2022-09-03T07:31:51.857Z,2.53
2022-09-03T07:34:18.859Z,1.60
2022-09-03T07:36:51.143Z,2.30
2022-09-03T07:39:18.380Z,1.87
2022-09-03T07:41:48.788Z,2.07
2022-09-03T07:44:19.415Z,2.00
2022-09-03T07:46:47.873Z,1.83
2022-09-03T07:49:14.677Z,1.70
2022-09-03T07:51:41.264Z,1.63
2022-09-03T07:54:10.007Z,1.70
2022-09-03T07:56:36.988Z,2.07
2022-09-03T07:59:04.320Z,1.87
2022-09-03T08:01:33.867Z,1.87
2022-09-03T08:04:01.322Z,1.77
2022-09-03T08:06:28.613Z,1.93
2022-09-03T08:09:04.525Z,1.73
2022-09-03T08:11:32.400Z,1.87
2022-09-03T08:14:02.559Z,2.03
2022-09-03T08:16:30.419Z,1.70
2022-09-03T08:18:57.019Z,2.33
2022-09-03T08:21:24.114Z,1.80
2022-09-03T08:23:51.809Z,1.93
2022-09-03T08:26:19.224Z,1.47
2022-09-03T08:28:45.866Z,1.50
2022-09-03T08:31:14.098Z,2.50
2022-09-03T08:33:43.072Z,1.77
2022-09-03T08:36:12.718Z,2.13
2022-09-03T08:38:39.720Z,2.27
2022-09-03T08:41:06.364Z,1.80
2022-09-03T08:43:35.616Z,2.30
2022-09-03T08:46:02.789Z,1.60
2022-09-03T08:48:30.011Z,2.10
2022-09-03T08:51:00.054Z,1.97
2022-09-03T08:53:31.953Z,1.87
2022-09-03T08:56:10.253Z,1.63
2022-09-03T08:58:38.647Z,2.30
2022-09-03T09:01:24.790Z,2.10
2022-09-03T09:03:54.464Z,1.50
2022-09-03T09:06:26.730Z,1.73
2022-09-03T09:09:03.564Z,1.83
2022-09-03T09:11:39.186Z,2.40
2022-09-03T09:14:10.214Z,1.80
2022-09-03T09:17:01.255Z,1.77
2022-09-03T09:19:46.628Z,2.10
2022-09-03T09:22:33.488Z,1.90
2022-09-03T09:25:01.973Z,1.80
2022-09-03T09:27:28.695Z,1.90
2022-09-03T09:29:57.923Z,1.70
2022-09-03T09:32:24.432Z,1.93
2022-09-03T09:34:53.200Z,1.70
2022-09-03T09:37:20.205Z,1.40
2022-09-03T09:40:00.664Z,1.80
2022-09-03T09:42:29.918Z,1.83
2022-09-03T09:44:56.475Z,2.03
2022-09-03T09:47:25.537Z,1.90
2022-09-03T09:49:54.448Z,1.93
2022-09-03T09:52:25.658Z,2.33
2022-09-03T09:54:54.508Z,1.63
2022-09-03T09:57:25.035Z,1.70
2022-09-03T10:00:12.869Z,1.80
2022-09-03T10:02:42.348Z,1.77
2022-09-03T10:05:13.767Z,1.60
2022-09-03T10:07:40.317Z,1.63
2022-09-03T10:10:14.816Z,1.60
2022-09-03T10:12:42.123Z,2.17
2022-09-03T10:15:12.941Z,1.63
2022-09-03T10:17:46.811Z,1.77
2022-09-03T10:20:30.932Z,1.57
2022-09-03T10:23:03.523Z,1.67
2022-09-03T10:26:00.622Z,1.53
2022-09-03T10:28:29.528Z,1.80
2022-09-03T10:31:02.158Z,1.50
2022-09-03T10:33:41.655Z,1.77
2022-09-03T10:36:16.127Z,1.80
2022-09-03T10:38:43.094Z,1.83
2022-09-03T10:41:26.021Z,1.87
2022-09-03T10:44:01.234Z,1.80
2022-09-03T10:46:29.737Z,1.90
2022-09-03T10:48:56.296Z,1.87
2022-09-03T10:51:36.163Z,1.63
2022-09-03T10:54:11.830Z,1.97
2022-09-03T10:57:16.984Z,1.40
2022-09-03T10:59:43.498Z,1.77
2022-09-03T11:02:30.310Z,1.93
2022-09-03T11:05:29.661Z,1.93
2022-09-03T11:08:14.891Z,1.70
2022-09-03T11:10:43.626Z,2.10
2022-09-03T11:13:13.679Z,1.60
2022-09-03T11:15:51.783Z,1.90
2022-09-03T11:18:24.567Z,1.50
2022-09-03T11:20:53.620Z,2.20
2022-09-03T11:23:21.394Z,1.93
2022-09-03T11:25:53.458Z,1.60
2022-09-03T11:28:34.992Z,2.20
2022-09-03T11:31:17.806Z,1.80
2022-09-03T11:33:56.903Z,2.03
2022-09-03T11:36:28.101Z,1.50
2022-09-03T11:38:54.592Z,1.97
2022-09-03T11:41:26.243Z,1.90
2022-09-03T11:43:54.235Z,2.03
2022-09-03T11:46:21.736Z,1.70
2022-09-03T11:48:48.459Z,2.10
2022-09-03T11:51:26.949Z,2.03
2022-09-03T11:54:02.085Z,2.07
2022-09-03T11:56:29.607Z,2.10
2022-09-03T11:59:00.928Z,1.90
2022-09-03T12:01:28.374Z,1.87
2022-09-03T12:03:58.476Z,2.20
2022-09-03T12:06:42.933Z,1.90
2022-09-03T12:09:22.227Z,1.73
2022-09-03T12:12:07.541Z,1.93
2022-09-03T12:14:42.841Z,1.90
2022-09-03T12:17:18.485Z,2.00
2022-09-03T12:19:50.683Z,2.17
2022-09-03T12:22:18.122Z,1.70
2022-09-03T12:24:45.056Z,1.80
2022-09-03T12:27:17.664Z,2.10
2022-09-03T12:29:51.902Z,1.90
2022-09-03T12:32:18.640Z,1.70
2022-09-03T12:34:45.227Z,2.20
2022-09-03T12:38:04.236Z,1.80
2022-09-03T12:40:16.272Z,1.97
2022-09-03T12:42:42.915Z,2.20
2022-09-03T12:45:15.736Z,2.30
2022-09-03T12:47:43.033Z,2.33
2022-09-03T12:50:11.669Z,1.27
2022-09-03T12:52:55.592Z,2.03
2022-09-03T12:55:41.608Z,2.50
2022-09-03T12:58:12.841Z,1.97
2022-09-03T13:00:42.763Z,1.83
2022-09-03T13:03:13.022Z,1.60
2022-09-03T13:05:48.098Z,2.13
2022-09-03T13:08:18.582Z,2.30
2022-09-03T13:10:45.937Z,2.00
2022-09-03T13:13:23.849Z,1.93
2022-09-03T13:16:02.817Z,1.97
2022-09-03T13:18:32.392Z,1.93
2022-09-03T13:21:05.020Z,2.30
2022-09-03T13:23:37.679Z,2.10
2022-09-03T13:26:22.844Z,1.80
2022-09-03T13:28:55.554Z,2.63
2022-09-03T13:31:25.812Z,2.13
2022-09-03T13:34:04.217Z,2.50
2022-09-03T13:36:34.696Z,2.00
2022-09-03T13:39:06.517Z,1.93
2022-09-03T13:41:36.765Z,2.13
2022-09-03T13:44:12.997Z,1.90
2022-09-03T13:46:52.449Z,2.20
2022-09-03T13:49:46.857Z,2.37
2022-09-03T13:52:22.444Z,2.00
2022-09-03T13:54:54.021Z,2.20
2022-09-03T13:57:37.563Z,2.40
2022-09-03T14:00:11.786Z,2.60
2022-09-03T14:02:53.284Z,2.03
2022-09-03T14:05:25.115Z,1.97
2022-09-03T14:07:52.411Z,3.27
2022-09-03T14:10:18.882Z,2.40
2022-09-03T14:12:49.261Z,2.23
2022-09-03T14:15:18.556Z,2.53
2022-09-03T14:18:03.882Z,2.50
2022-09-03T14:20:33.334Z,2.30
2022-09-03T14:23:02.818Z,2.13
2022-09-03T14:25:29.387Z,1.87
2022-09-03T14:28:12.507Z,2.30
2022-09-03T14:30:42.348Z,2.20
2022-09-03T14:33:31.113Z,3.00
2022-09-03T14:36:06.710Z,16.30
2022-09-03T14:38:33.192Z,2.40
2022-09-03T14:41:26.020Z,2.53
2022-09-03T14:44:11.362Z,2.20
2022-09-03T14:46:37.926Z,2.30
2022-09-03T14:49:16.131Z,2.40
2022-09-03T14:51:48.790Z,2.50
2022-09-03T14:54:29.939Z,2.30
2022-09-03T14:57:16.733Z,2.73
2022-09-03T14:59:48.972Z,3.00
2022-09-03T15:02:27.492Z,3.10
2022-09-03T15:05:23.344Z,3.40
2022-09-03T15:07:53.679Z,2.70
2022-09-03T15:10:26.476Z,3.13
2022-09-03T15:12:54.795Z,3.20
2022-09-03T15:15:27.861Z,2.90
2022-09-03T15:18:00.161Z,3.20
2022-09-03T15:20:32.198Z,2.50
2022-09-03T15:23:13.834Z,2.73
2022-09-03T15:25:49.555Z,2.97
2022-09-03T15:28:22.223Z,3.37
2022-09-03T15:30:52.095Z,3.13
2022-09-03T15:33:23.223Z,2.70
2022-09-03T15:35:56.467Z,2.93
2022-09-03T15:38:32.259Z,2.97
2022-09-03T15:41:02.360Z,2.80
2022-09-03T15:43:33.735Z,2.87
2022-09-03T15:46:10.632Z,2.83
2022-09-03T15:48:53.620Z,3.00
2022-09-03T15:51:32.833Z,2.50
2022-09-03T15:54:03.900Z,2.83
2022-09-03T15:56:39.763Z,3.20
2022-09-03T15:59:19.730Z,2.60
2022-09-03T16:01:54.517Z,3.33
2022-09-03T16:04:48.993Z,2.90
2022-09-03T16:07:24.042Z,3.30
2022-09-03T16:10:24.145Z,18.67
2022-09-03T16:12:57.455Z,11.70
2022-09-03T16:15:26.152Z,4.67
2022-09-03T16:18:02.296Z,6.07
2022-09-03T16:20:43.215Z,10.33
2022-09-03T16:23:15.943Z,12.07
2022-09-03T16:25:55.947Z,20.70
2022-09-03T16:28:25.622Z,5.70
2022-09-03T16:30:55.372Z,4.87
2022-09-03T16:33:34.015Z,3.83
2022-09-03T16:36:06.792Z,3.83
2022-09-03T16:38:58.100Z,4.07
2022-09-03T16:41:32.323Z,5.00
2022-09-03T16:44:17.702Z,5.50
2022-09-03T16:46:56.410Z,4.40
2022-09-03T16:49:28.652Z,4.40
2022-09-03T16:52:00.957Z,3.60
2022-09-03T16:54:38.180Z,3.00
2022-09-03T16:57:08.027Z,5.07
2022-09-03T16:59:34.614Z,4.37
2022-09-03T17:02:23.690Z,3.70
2022-09-03T17:04:59.999Z,3.07
2022-09-03T17:07:29.638Z,5.30
2022-09-03T17:10:14.669Z,3.50
2022-09-03T17:12:41.170Z,4.00
2022-09-03T17:15:10.782Z,3.70
2022-09-03T17:17:46.298Z,3.43
2022-09-03T17:20:31.740Z,3.73
2022-09-03T17:23:05.754Z,3.37
2022-09-03T17:25:39.464Z,2.80
2022-09-03T17:28:09.454Z,2.77
2022-09-03T17:30:48.368Z,3.80
2022-09-03T17:33:26.204Z,2.90
2022-09-03T17:36:31.688Z,2.63
2022-09-03T17:39:09.955Z,2.47
2022-09-03T17:41:42.521Z,3.20
2022-09-03T17:44:20.733Z,2.73
2022-09-03T17:47:05.481Z,3.20
2022-09-03T17:49:34.799Z,3.37
2022-09-03T17:52:07.313Z,2.70
2022-09-03T17:54:42.181Z,2.90
2022-09-03T17:57:10.548Z,3.33
2022-09-03T17:59:45.425Z,2.80
2022-09-03T18:02:14.513Z,3.00
2022-09-03T18:04:51.473Z,2.80
2022-09-03T18:07:18.104Z,2.97
2022-09-03T18:09:52.896Z,2.90
2022-09-03T18:12:25.500Z,3.70
2022-09-03T18:15:11.203Z,3.30
2022-09-03T18:17:41.513Z,3.60
2022-09-03T18:20:28.186Z,4.00
2022-09-03T18:23:45.684Z,3.83
2022-09-03T18:26:37.936Z,4.17
2022-09-03T18:29:30.276Z,4.40
2022-09-03T18:32:15.594Z,4.77
2022-09-03T18:35:01.339Z,5.17
2022-09-03T18:37:47.127Z,6.47
2022-09-03T18:40:44.287Z,5.20
2022-09-03T18:43:41.888Z,4.87
2022-09-03T18:50:02.635Z,4.50
2022-09-03T18:52:50.723Z,4.23
2022-09-03T18:55:36.057Z,4.33
2022-09-03T18:58:47.577Z,4.93
2022-09-03T19:01:45.079Z,4.67
2022-09-03T19:04:30.283Z,4.50
2022-09-03T19:07:21.518Z,4.50
2022-09-03T19:10:17.535Z,4.97
2022-09-03T19:13:07.660Z,4.10
2022-09-03T19:15:58.357Z,5.40
2022-09-03T19:18:55.986Z,5.13
2022-09-03T19:21:50.328Z,5.00
2022-09-03T19:24:38.974Z,5.10
2022-09-03T19:27:51.701Z,4.40
2022-09-03T19:30:32.834Z,5.30
2022-09-03T19:33:18.112Z,4.03
2022-09-03T19:36:13.039Z,4.23
2022-09-03T19:39:13.929Z,4.67
2022-09-03T19:42:15.787Z,3.97
2022-09-03T19:45:13.814Z,3.20
2022-09-03T19:48:03.556Z,3.20
2022-09-03T19:50:51.754Z,3.73
2022-09-03T19:53:38.221Z,3.17
2022-09-03T19:56:52.756Z,2.67
2022-09-03T19:59:39.533Z,3.10
2022-09-03T20:02:24.923Z,3.73
2022-09-03T20:05:12.687Z,3.63
2022-09-03T20:07:57.898Z,3.80
2022-09-03T20:10:24.877Z,3.27
2022-09-03T20:13:03.492Z,3.10
2022-09-03T20:15:52.520Z,3.33
2022-09-03T20:18:22.182Z,4.40
2022-09-03T20:20:54.508Z,4.70
2022-09-03T20:23:41.262Z,3.77
2022-09-03T20:26:34.348Z,4.30
2022-09-03T20:29:36.383Z,4.63
2022-09-03T20:32:08.839Z,4.50
2022-09-03T20:34:55.588Z,4.50
2022-09-03T20:37:28.234Z,4.87
2022-09-03T20:40:14.980Z,4.87
2022-09-03T20:42:44.520Z,4.10
2022-09-03T20:45:18.198Z,3.90
2022-09-03T20:48:03.361Z,4.60
2022-09-03T20:50:56.371Z,4.10
2022-09-03T20:53:44.486Z,3.40
2022-09-03T20:56:29.866Z,3.93
2022-09-03T20:59:02.242Z,3.90
2022-09-03T21:01:34.697Z,4.10
2022-09-03T21:04:04.367Z,4.17
2022-09-03T21:06:31.193Z,4.10
2022-09-03T21:09:02.585Z,3.97
2022-09-03T21:11:38.236Z,3.60
2022-09-03T21:14:07.903Z,3.77
2022-09-03T21:16:42.865Z,3.63
2022-09-03T21:19:21.728Z,3.87
2022-09-03T21:21:58.421Z,3.70
2022-09-03T21:24:31.873Z,3.60
2022-09-03T21:27:01.743Z,4.60
2022-09-03T21:29:28.264Z,4.17
2022-09-03T21:31:57.747Z,3.90
2022-09-03T21:34:39.237Z,3.97
2022-09-03T21:37:06.247Z,4.30
2022-09-03T21:39:36.045Z,4.63
2022-09-03T21:42:17.085Z,4.57
2022-09-03T21:44:57.920Z,3.97
2022-09-03T21:47:26.909Z,4.43
2022-09-03T21:49:56.411Z,3.63
2022-09-03T21:52:27.016Z,4.50
2022-09-03T21:54:53.735Z,4.23
2022-09-03T21:57:23.501Z,4.47
2022-09-03T21:59:53.150Z,4.30
2022-09-03T22:02:31.463Z,4.90
2022-09-03T22:04:58.708Z,5.07
2022-09-03T22:07:25.243Z,5.20
2022-09-03T22:09:51.727Z,4.87
2022-09-03T22:12:29.724Z,4.47
2022-09-03T22:14:56.274Z,4.70
2022-09-03T22:17:30.218Z,4.40
2022-09-03T22:19:57.047Z,4.27
2022-09-03T22:22:29.376Z,4.13
2022-09-03T22:25:05.012Z,4.27
2022-09-03T22:27:31.597Z,4.40
2022-09-03T22:30:07.394Z,4.50
2022-09-03T22:32:45.639Z,4.50
2022-09-03T22:35:30.867Z,4.37
2022-09-03T22:38:12.800Z,4.40
2022-09-03T22:40:39.289Z,5.33
2022-09-03T22:43:32.250Z,4.93
2022-09-03T22:46:07.260Z,6.10
2022-09-03T22:48:52.749Z,5.10
2022-09-03T22:51:21.782Z,5.10
2022-09-03T22:53:51.594Z,5.37
2022-09-03T22:56:22.102Z,5.03
2022-09-03T22:58:59.217Z,5.30
2022-09-03T23:01:35.034Z,5.27
2022-09-03T23:04:06.965Z,4.53
2022-09-03T23:06:35.628Z,4.33
2022-09-03T23:09:04.285Z,5.37
2022-09-03T23:11:46.176Z,5.37
2022-09-03T23:14:15.581Z,5.20
2022-09-03T23:16:45.917Z,4.13
2022-09-03T23:22:01.408Z,5.40
2022-09-03T23:24:31.008Z,5.23
2022-09-03T23:26:59.039Z,5.57
2022-09-03T23:29:27.685Z,5.13
2022-09-03T23:31:58.118Z,4.43
2022-09-03T23:34:25.699Z,5.33
2022-09-03T23:37:29.537Z,5.07
2022-09-03T23:39:47.898Z,4.63
2022-09-03T23:42:23.560Z,4.80
2022-09-03T23:44:56.176Z,5.37
2022-09-03T23:47:23.574Z,5.10
2022-09-03T23:49:53.070Z,4.90
2022-09-03T23:52:26.265Z,4.80
2022-09-03T23:54:55.495Z,5.37
2022-09-03T23:57:26.535Z,5.27
